National Weather Service Raw Text Product

Displaying AFOS PIL: TAFALO Received: 2018-10-12 05:20 UTC


766 
FTUS43 KDMX 120520
TAFALO
TAF
KALO 120520Z 1206/1306 29005KT P6SM BKN035
     FM120800 VRB02KT P6SM BKN150
     FM121900 29010KT P6SM BKN100
     FM130100 VRB04KT P6SM SCT130=